Birkenfeld, Oregon
Current Conditions -  °F | °C
As of 10:35 AM on Thursday 27 Nov 2014 (Local Time) from KKLS Reporting Station
Overcast Overcast  
Wind Chill: 55°   Ceiling: 5000
Heat Index: 55°   Visibility: 10mi
Dew Point: 48°   Wind: 17mph
Humidity: 77%   Direction: 150°SSE
Pressure: 29.95"   Gusts: 24mph
Location:  46.0479°N, 123.274°W
Report Text: KKLS 271835Z 15015G21KT 10SM BKN050 OVC065 13/09 A2995 RMK AO1 P0001
Loading
Personal Weather Stations






























Interactive Weather Map New forecast layout! Learn more

10-Day Weather Forecast

Advertisements
Track Severe Weather on mobile